createdAt,value
2023-05-25T00:01:01.220Z,99.90
2023-05-25T00:03:36.140Z,99.90
2023-05-25T00:06:10.428Z,99.90
2023-05-25T00:08:42.323Z,99.90
2023-05-25T00:11:14.781Z,99.90
2023-05-25T00:13:46.742Z,99.90
2023-05-25T00:16:19.960Z,99.90
2023-05-25T00:18:53.178Z,99.90
2023-05-25T00:21:44.293Z,99.90
2023-05-25T00:24:16.206Z,99.90
2023-05-25T00:26:48.139Z,99.90
2023-05-25T00:29:20.061Z,99.90
2023-05-25T00:31:53.153Z,99.90
2023-05-25T00:34:25.670Z,99.90
2023-05-25T00:36:57.601Z,99.90
2023-05-25T00:39:29.504Z,99.90
2023-05-25T00:42:03.189Z,99.90
2023-05-25T00:44:35.099Z,99.90
2023-05-25T00:47:07.112Z,99.90
2023-05-25T00:49:39.097Z,99.90
2023-05-25T00:52:13.128Z,99.90
2023-05-25T00:54:50.577Z,99.90
2023-05-25T00:57:46.077Z,99.90
2023-05-25T01:00:24.707Z,99.90
2023-05-25T01:02:59.350Z,99.80
2023-05-25T01:05:34.964Z,99.90
2023-05-25T01:08:08.699Z,99.80
2023-05-25T01:10:42.526Z,99.80
2023-05-25T01:13:15.831Z,99.80
2023-05-25T01:15:48.305Z,99.80
2023-05-25T01:18:20.244Z,99.80
2023-05-25T01:21:02.151Z,99.90
2023-05-25T01:23:36.798Z,99.90
2023-05-25T01:26:13.147Z,99.90
2023-05-25T01:28:51.881Z,99.90
2023-05-25T01:31:24.425Z,99.90
2023-05-25T01:33:56.894Z,99.90
2023-05-25T01:36:29.123Z,99.90
2023-05-25T01:39:01.278Z,99.90
2023-05-25T01:41:33.225Z,99.90
2023-05-25T01:44:07.752Z,99.90
2023-05-25T01:46:41.230Z,99.90
2023-05-25T01:49:31.262Z,99.90
2023-05-25T01:52:12.305Z,99.90
2023-05-25T01:54:51.626Z,99.90
2023-05-25T01:57:25.991Z,99.90
2023-05-25T02:00:00.404Z,99.90
2023-05-25T02:02:33.612Z,99.90
2023-05-25T02:05:06.083Z,99.90
2023-05-25T02:07:38.580Z,99.90
2023-05-25T02:10:10.906Z,99.90
2023-05-25T02:12:42.891Z,99.90
2023-05-25T02:15:16.569Z,99.90
2023-05-25T02:17:48.528Z,99.90
2023-05-25T02:20:20.605Z,99.90
2023-05-25T02:22:52.717Z,99.90
2023-05-25T02:25:24.622Z,99.90
2023-05-25T02:27:56.672Z,99.90
2023-05-25T02:30:28.609Z,99.90
2023-05-25T02:33:02.623Z,99.90
2023-05-25T02:35:44.459Z,99.90
2023-05-25T02:38:17.137Z,99.90
2023-05-25T02:40:49.559Z,99.90
2023-05-25T02:43:21.494Z,99.90
2023-05-25T02:45:53.460Z,99.90
2023-05-25T02:48:25.723Z,99.90
2023-05-25T02:50:57.754Z,99.90
2023-05-25T02:53:30.131Z,99.90
2023-05-25T02:56:03.983Z,99.90
2023-05-25T02:58:38.861Z,99.90
2023-05-25T05:56:05.946Z,99.90
2023-05-25T05:58:38.757Z,99.90
2023-05-25T06:01:10.896Z,99.90
2023-05-25T06:03:43.859Z,99.90
2023-05-25T06:06:17.573Z,99.90
2023-05-25T06:08:49.485Z,99.90
2023-05-25T06:11:21.579Z,99.90
2023-05-25T06:13:53.581Z,99.90
2023-05-25T06:16:25.479Z,99.90
2023-05-25T06:18:57.436Z,99.90
2023-05-25T06:21:29.448Z,99.90
2023-05-25T06:24:01.617Z,99.90
2023-05-25T06:26:33.498Z,99.90
2023-05-25T06:29:05.373Z,99.90
2023-05-25T06:31:37.936Z,99.90
2023-05-25T06:34:09.972Z,99.90
2023-05-25T06:36:42.242Z,99.90
2023-05-25T06:39:15.414Z,99.90
2023-05-25T06:41:48.282Z,99.90
2023-05-25T06:44:31.119Z,99.90
2023-05-25T06:47:07.074Z,99.90
2023-05-25T06:49:38.995Z,99.90
2023-05-25T06:52:10.999Z,99.90
2023-05-25T06:54:42.926Z,99.90
2023-05-25T06:57:14.906Z,99.90
2023-05-25T06:59:46.761Z,99.90
2023-05-25T07:02:19.676Z,99.90
2023-05-25T07:04:51.685Z,99.90
2023-05-25T07:07:23.647Z,99.90
2023-05-25T07:09:55.494Z,99.90
2023-05-25T07:12:27.353Z,99.90
2023-05-25T07:14:59.214Z,99.90
2023-05-25T07:17:31.677Z,99.90
2023-05-25T07:20:05.241Z,99.90
2023-05-25T07:22:37.264Z,99.90
2023-05-25T07:25:09.717Z,99.90
2023-05-25T07:27:42.813Z,99.90
2023-05-25T07:30:14.847Z,99.90
2023-05-25T07:32:47.063Z,99.90
2023-05-25T07:35:19.049Z,99.90
2023-05-25T07:38:02.726Z,99.90
2023-05-25T07:40:34.602Z,99.90
2023-05-25T07:43:08.394Z,99.90
2023-05-25T07:45:40.774Z,99.90
2023-05-25T07:48:12.696Z,99.90
2023-05-25T07:50:44.728Z,99.90
2023-05-25T07:53:16.651Z,99.90
2023-05-25T07:55:48.727Z,99.90
2023-05-25T07:58:20.735Z,99.90
2023-05-25T08:00:53.064Z,99.90
2023-05-25T08:03:39.915Z,99.90
2023-05-25T08:06:17.091Z,99.90
2023-05-25T08:08:50.089Z,99.90
2023-05-25T08:11:24.979Z,99.90
2023-05-25T08:13:57.061Z,99.90
2023-05-25T08:16:28.982Z,99.90
2023-05-25T08:19:01.772Z,99.90
2023-05-25T08:21:35.209Z,99.90
2023-05-25T08:24:08.562Z,99.90
2023-05-25T08:26:53.688Z,99.90
2023-05-25T08:29:26.911Z,99.90
2023-05-25T08:31:58.770Z,99.90
2023-05-25T08:34:30.774Z,99.90
2023-05-25T08:37:02.722Z,99.90
2023-05-25T08:39:35.036Z,99.90
2023-05-25T08:42:07.657Z,99.90
2023-05-25T08:44:39.706Z,99.90
2023-05-25T08:47:12.392Z,99.90
2023-05-25T08:49:45.316Z,99.90
2023-05-25T08:52:23.455Z,99.90
2023-05-25T08:54:58.536Z,99.90
2023-05-25T08:57:51.293Z,99.90
2023-05-25T09:00:31.176Z,99.90
2023-05-25T09:03:17.971Z,99.90
2023-05-25T09:05:51.079Z,99.90
2023-05-25T09:08:23.543Z,99.90
2023-05-25T09:10:57.768Z,99.90
2023-05-25T09:13:29.805Z,99.90
2023-05-25T09:16:02.318Z,99.90
2023-05-25T09:18:34.601Z,99.90
2023-05-25T09:21:06.524Z,99.90
2023-05-25T09:23:38.778Z,99.90
2023-05-25T09:26:10.810Z,99.90
2023-05-25T09:28:49.289Z,99.90
2023-05-25T09:31:23.942Z,99.90
2023-05-25T09:34:01.130Z,99.90
2023-05-25T09:36:37.209Z,99.90
2023-05-25T09:39:13.962Z,99.90
2023-05-25T09:41:46.449Z,99.90
2023-05-25T09:44:28.479Z,99.90
2023-05-25T09:47:00.522Z,99.90
2023-05-25T09:49:32.900Z,99.90
2023-05-25T09:52:06.262Z,99.90
2023-05-25T09:54:41.164Z,99.60
2023-05-25T09:57:13.222Z,98.90
2023-05-25T09:59:45.849Z,98.70
2023-05-25T10:02:17.890Z,97.90
2023-05-25T10:04:49.868Z,97.20
2023-05-25T10:07:22.477Z,96.00
2023-05-25T10:09:55.896Z,96.40
2023-05-25T10:12:29.133Z,95.60
2023-05-25T10:15:03.859Z,94.80
2023-05-25T10:17:38.724Z,94.90
2023-05-25T10:20:11.429Z,94.80
2023-05-25T10:22:59.063Z,93.70
2023-05-25T10:25:53.894Z,94.60
2023-05-25T10:28:38.029Z,95.00
2023-05-25T10:31:10.837Z,94.50
2023-05-25T10:33:47.503Z,93.40
2023-05-25T10:36:23.565Z,93.50
2023-05-25T10:38:55.714Z,94.10
2023-05-25T10:41:27.994Z,93.40
2023-05-25T10:44:01.110Z,93.80
2023-05-25T10:46:33.023Z,93.50
2023-05-25T10:49:05.889Z,93.70
2023-05-25T10:51:43.780Z,95.00
2023-05-25T10:54:16.117Z,95.30
2023-05-25T10:57:19.772Z,95.50
2023-05-25T11:00:00.738Z,94.40
2023-05-25T11:02:48.926Z,93.60
2023-05-25T11:05:26.795Z,94.60
2023-05-25T11:08:00.953Z,94.60
2023-05-25T11:10:55.406Z,94.30
2023-05-25T11:13:45.331Z,93.50
2023-05-25T11:16:35.957Z,93.40
2023-05-25T11:19:14.634Z,93.50
2023-05-25T11:21:46.714Z,93.70
2023-05-25T11:24:18.741Z,91.50
2023-05-25T11:26:58.654Z,92.20
2023-05-25T11:29:31.671Z,92.50
2023-05-25T11:32:04.081Z,92.30
2023-05-25T11:34:36.855Z,92.90
2023-05-25T11:37:10.434Z,92.00
2023-05-25T11:39:49.950Z,92.50
2023-05-25T11:42:23.618Z,92.50
2023-05-25T11:44:56.278Z,92.40
2023-05-25T11:47:30.327Z,92.40
2023-05-25T11:50:04.849Z,91.80
2023-05-25T11:52:36.832Z,91.60
2023-05-25T11:55:14.373Z,90.20
2023-05-25T11:57:46.395Z,91.30
2023-05-25T12:00:27.546Z,90.80
2023-05-25T12:03:02.166Z,91.40
2023-05-25T12:05:38.538Z,90.50
2023-05-25T12:08:10.725Z,88.60
2023-05-25T12:10:54.958Z,87.90
2023-05-25T12:13:27.220Z,87.30
2023-05-25T12:16:00.301Z,86.50
2023-05-25T12:18:32.537Z,86.80
2023-05-25T12:21:08.236Z,86.80
2023-05-25T12:23:40.427Z,86.60
2023-05-25T12:26:14.242Z,83.80
2023-05-25T12:29:03.713Z,85.50
2023-05-25T12:31:38.784Z,85.80
2023-05-25T12:34:12.241Z,85.90
2023-05-25T12:36:48.721Z,86.30
2023-05-25T12:39:29.821Z,85.80
2023-05-25T12:42:02.902Z,87.60
2023-05-25T12:44:37.116Z,88.40
2023-05-25T12:47:23.492Z,86.10
2023-05-25T12:50:13.092Z,86.30
2023-05-25T12:52:46.883Z,85.60
2023-05-25T12:55:29.570Z,87.20
2023-05-25T12:58:05.516Z,87.50
2023-05-25T13:00:39.531Z,85.30
2023-05-25T13:03:12.292Z,84.70
2023-05-25T13:05:46.643Z,86.40
2023-05-25T13:08:18.681Z,85.90
2023-05-25T13:10:51.642Z,84.40
2023-05-25T13:13:23.937Z,84.50
2023-05-25T13:15:56.018Z,84.20
2023-05-25T13:18:28.087Z,84.10
2023-05-25T13:21:00.467Z,84.30
2023-05-25T13:23:32.819Z,86.10
2023-05-25T13:26:04.780Z,86.30
2023-05-25T13:28:36.825Z,86.20
2023-05-25T13:31:08.832Z,84.20
2023-05-25T13:33:40.952Z,83.90
2023-05-25T13:36:13.267Z,85.90
2023-05-25T13:38:45.500Z,83.10
2023-05-25T13:41:18.794Z,84.50
2023-05-25T13:43:50.874Z,85.80
2023-05-25T13:46:34.149Z,85.40
2023-05-25T13:49:07.269Z,85.40
2023-05-25T13:51:39.455Z,84.50
2023-05-25T13:54:12.906Z,83.80
2023-05-25T13:56:44.885Z,83.00
2023-05-25T13:59:16.912Z,82.70
2023-05-25T14:01:48.973Z,84.40
2023-05-25T14:04:21.141Z,84.40
2023-05-25T14:06:53.145Z,84.50
2023-05-25T14:09:25.256Z,83.40
2023-05-25T14:11:57.278Z,83.50
2023-05-25T14:14:32.217Z,82.70
2023-05-25T14:17:04.978Z,83.60
2023-05-25T14:19:37.746Z,83.60
2023-05-25T14:22:13.852Z,83.00
2023-05-25T14:24:46.557Z,83.10
2023-05-25T14:27:22.810Z,82.80
2023-05-25T14:29:54.850Z,82.10
2023-05-25T14:32:27.067Z,83.20
2023-05-25T14:34:59.143Z,83.80
2023-05-25T14:37:31.232Z,82.80
2023-05-25T14:40:03.347Z,83.30
2023-05-25T14:42:35.917Z,82.40
2023-05-25T14:45:10.801Z,83.50
2023-05-25T14:47:43.439Z,83.40
2023-05-25T14:50:16.024Z,82.20
2023-05-25T14:52:48.020Z,83.00
2023-05-25T14:55:20.050Z,81.70
2023-05-25T14:57:52.000Z,81.80
2023-05-25T15:00:23.941Z,81.80
2023-05-25T15:02:56.944Z,82.10
2023-05-25T15:05:28.945Z,83.10
2023-05-25T15:08:00.873Z,84.10
2023-05-25T15:10:32.783Z,84.20
2023-05-25T15:13:04.738Z,83.10
2023-05-25T15:15:36.860Z,83.40
2023-05-25T15:18:09.044Z,84.60
2023-05-25T15:20:42.396Z,85.00
2023-05-25T15:23:14.651Z,83.70
2023-05-25T15:25:46.592Z,84.00
2023-05-25T15:28:18.695Z,83.70
2023-05-25T15:30:50.763Z,83.80
2023-05-25T15:33:25.735Z,84.60
2023-05-25T15:36:02.101Z,85.70
2023-05-25T15:38:34.121Z,86.50
2023-05-25T15:41:07.500Z,86.50
2023-05-25T15:43:39.472Z,86.60
2023-05-25T15:46:11.459Z,86.60
2023-05-25T15:48:43.478Z,87.30
2023-05-25T15:51:15.568Z,87.80
2023-05-25T15:53:48.170Z,87.80
2023-05-25T15:56:20.194Z,88.10
2023-05-25T15:58:52.954Z,87.90
2023-05-25T16:01:24.915Z,86.70
2023-05-25T16:03:56.876Z,87.10
2023-05-25T16:06:29.731Z,87.00
2023-05-25T16:09:01.650Z,87.20
2023-05-25T16:11:34.163Z,88.90
2023-05-25T16:14:06.117Z,87.50
2023-05-25T16:16:38.176Z,88.70
2023-05-25T16:19:11.695Z,89.80
2023-05-25T16:21:46.091Z,90.50
2023-05-25T16:24:18.148Z,90.80
2023-05-25T16:26:50.135Z,90.20
2023-05-25T16:29:22.119Z,89.70
2023-05-25T16:31:55.449Z,89.00
2023-05-25T16:34:28.763Z,88.80
2023-05-25T16:37:00.732Z,89.40
2023-05-25T16:39:33.381Z,89.70
2023-05-25T16:42:06.527Z,89.50
2023-05-25T16:44:38.538Z,90.10
2023-05-25T16:47:10.597Z,90.40
2023-05-25T16:49:42.538Z,90.00
2023-05-25T16:52:14.570Z,89.60
2023-05-25T16:54:46.725Z,89.70
2023-05-25T16:57:19.516Z,89.70
2023-05-25T16:59:53.754Z,90.30
2023-05-25T17:02:26.245Z,90.00
2023-05-25T17:04:58.327Z,90.90
2023-05-25T17:07:30.482Z,91.10
2023-05-25T17:10:02.587Z,91.70
2023-05-25T17:12:34.809Z,91.50
2023-05-25T17:15:11.360Z,92.00
2023-05-25T17:17:43.929Z,92.30
2023-05-25T17:20:16.028Z,92.30
2023-05-25T17:22:49.188Z,92.60
2023-05-25T17:25:21.480Z,92.70
2023-05-25T17:27:53.535Z,92.60
2023-05-25T17:30:25.578Z,92.70
2023-05-25T17:33:01.667Z,92.30
2023-05-25T17:35:33.787Z,92.90
2023-05-25T17:38:06.959Z,92.90
2023-05-25T17:40:38.962Z,93.10
2023-05-25T17:43:11.997Z,92.80
2023-05-25T17:45:44.154Z,92.90
2023-05-25T17:48:17.966Z,93.50
2023-05-25T17:50:49.996Z,93.60
2023-05-25T17:53:22.088Z,94.00
2023-05-25T17:55:54.070Z,95.20
2023-05-25T17:58:26.064Z,94.70
2023-05-25T18:00:58.253Z,94.30
2023-05-25T18:03:31.634Z,94.10
2023-05-25T18:06:05.381Z,93.80
2023-05-25T18:08:37.346Z,93.90
2023-05-25T18:11:10.540Z,94.10
2023-05-25T18:13:42.604Z,94.10
2023-05-25T18:16:14.610Z,94.50
2023-05-25T18:18:52.587Z,94.50
2023-05-25T18:21:24.712Z,95.30
2023-05-25T18:23:56.668Z,95.10
2023-05-25T18:26:30.190Z,95.10
2023-05-25T18:29:02.888Z,95.50
2023-05-25T18:31:35.576Z,96.40
2023-05-25T18:34:07.606Z,96.10
2023-05-25T18:36:39.778Z,96.20
2023-05-25T18:39:12.278Z,96.30
2023-05-25T18:41:44.280Z,96.40
2023-05-25T18:44:17.311Z,96.40
2023-05-25T18:46:51.909Z,96.50
2023-05-25T18:49:24.468Z,97.20
2023-05-25T18:51:56.397Z,97.00
2023-05-25T18:54:29.570Z,97.10
2023-05-25T18:57:01.699Z,97.30
2023-05-25T18:59:34.370Z,97.70
2023-05-25T19:02:07.911Z,98.00
2023-05-25T19:04:45.053Z,98.40
2023-05-25T19:07:18.427Z,98.70
2023-05-25T19:09:51.123Z,99.00
2023-05-25T19:12:23.779Z,99.30
2023-05-25T19:14:59.989Z,99.80
2023-05-25T19:17:33.243Z,99.90
2023-05-25T19:20:05.796Z,99.90
2023-05-25T19:22:39.267Z,99.90
2023-05-25T19:25:13.460Z,99.90
2023-05-25T19:27:45.586Z,99.90
2023-05-25T19:30:19.066Z,99.90
2023-05-25T19:32:53.169Z,99.90
2023-05-25T19:35:25.766Z,99.90
2023-05-25T19:37:59.212Z,99.90
2023-05-25T19:40:33.041Z,99.90
2023-05-25T19:43:05.024Z,99.90
2023-05-25T19:45:37.145Z,99.90
2023-05-25T19:48:10.875Z,99.90
2023-05-25T19:50:44.258Z,99.90
2023-05-25T19:53:16.848Z,99.90
2023-05-25T19:55:48.941Z,99.90
2023-05-25T19:58:22.960Z,99.90
2023-05-25T20:00:59.797Z,99.90
2023-05-25T20:03:35.831Z,99.90
2023-05-25T20:06:10.087Z,99.90
2023-05-25T20:08:42.104Z,99.90
2023-05-25T20:11:15.752Z,99.90
2023-05-25T20:13:48.268Z,99.90
2023-05-25T20:16:22.343Z,99.90
2023-05-25T20:18:54.470Z,99.90
2023-05-25T20:21:26.921Z,99.90
2023-05-25T20:23:58.929Z,99.90
2023-05-25T20:26:30.882Z,99.90
2023-05-25T20:29:05.428Z,99.90
2023-05-25T20:31:38.785Z,99.90
2023-05-25T20:34:11.323Z,99.90
2023-05-25T20:36:43.370Z,99.90
2023-05-25T20:39:16.186Z,99.90
2023-05-25T20:41:49.344Z,99.90
2023-05-25T20:44:27.626Z,99.90
2023-05-25T20:47:00.992Z,99.90
2023-05-25T20:49:33.542Z,99.90
2023-05-25T20:52:06.238Z,99.90
2023-05-25T20:54:44.674Z,99.90
2023-05-25T20:57:16.739Z,99.90
2023-05-25T20:59:48.969Z,99.90
2023-05-25T21:02:21.012Z,99.90
2023-05-25T21:04:53.035Z,99.90
2023-05-25T21:07:27.508Z,99.90
2023-05-25T21:10:01.227Z,99.90
2023-05-25T21:12:33.243Z,99.90
2023-05-25T21:15:05.916Z,99.90
2023-05-25T21:17:39.455Z,99.90
2023-05-25T21:20:14.307Z,99.90
2023-05-25T21:22:46.360Z,99.90
2023-05-25T21:25:18.360Z,99.90
2023-05-25T21:27:51.061Z,99.90
2023-05-25T21:30:24.412Z,99.90
2023-05-25T21:32:56.624Z,99.90
2023-05-25T21:35:29.828Z,99.90
2023-05-25T21:38:01.806Z,99.90
2023-05-25T21:40:33.809Z,99.90
2023-05-25T21:43:06.601Z,99.90
2023-05-25T21:45:38.539Z,99.90
2023-05-25T21:48:10.509Z,99.90
2023-05-25T21:50:42.624Z,99.90
2023-05-25T21:53:14.692Z,99.90
2023-05-25T21:55:49.247Z,99.90
2023-05-25T21:58:21.208Z,99.90
2023-05-25T22:00:53.123Z,99.90
2023-05-25T22:03:25.055Z,99.90
2023-05-25T22:05:57.057Z,99.90
2023-05-25T22:08:28.993Z,99.90
2023-05-25T22:11:00.999Z,99.90
2023-05-25T22:13:33.115Z,99.90
2023-05-25T22:16:05.059Z,99.90
2023-05-25T22:18:38.546Z,99.90
2023-05-25T22:21:10.718Z,99.90
2023-05-25T22:23:42.615Z,99.90
2023-05-25T22:26:14.657Z,99.90
2023-05-25T22:28:46.687Z,99.90
2023-05-25T22:31:18.690Z,99.90
2023-05-25T22:33:50.646Z,99.90
2023-05-25T22:36:22.523Z,99.90
2023-05-25T22:38:54.438Z,99.90
2023-05-25T22:41:26.597Z,99.90
2023-05-25T22:43:58.522Z,99.90
2023-05-25T22:46:30.437Z,99.90
2023-05-25T22:49:02.403Z,99.90
2023-05-25T22:51:34.373Z,99.90
2023-05-25T22:54:06.318Z,99.90
2023-05-25T22:56:38.212Z,99.90
2023-05-25T22:59:10.057Z,99.90
2023-05-25T23:01:42.046Z,99.90
2023-05-25T23:04:14.231Z,99.90
2023-05-25T23:06:46.324Z,99.90
2023-05-25T23:09:18.237Z,99.90
2023-05-25T23:11:50.240Z,99.90
2023-05-25T23:14:22.117Z,99.90
2023-05-25T23:16:54.221Z,99.90
2023-05-25T23:19:26.152Z,99.90
2023-05-25T23:21:58.647Z,99.90
2023-05-25T23:24:30.670Z,99.90
2023-05-25T23:27:02.987Z,99.90
2023-05-25T23:29:34.844Z,99.90
2023-05-25T23:32:06.978Z,99.90
2023-05-25T23:34:38.892Z,99.90
2023-05-25T23:37:10.799Z,99.90
2023-05-25T23:39:42.753Z,99.90
2023-05-25T23:42:15.589Z,99.90
2023-05-25T23:44:47.474Z,99.90
2023-05-25T23:47:19.446Z,99.90
2023-05-25T23:49:51.336Z,99.90
2023-05-25T23:52:23.190Z,99.90
2023-05-25T23:54:55.073Z,99.90
2023-05-25T23:57:26.956Z,99.90
2023-05-25T23:59:58.815Z,99.90
